Time;durP1;ratioP1;P1;durP2;ratioP2;P2;SDS_P1;SDS_P2;PMS_P1;PMS_P2;Temp;Humidity;BMP_temperature;BMP_pressure;BME280_temperature;BME280_humidity;BME280_pressure;Samples;Min_cycle;Max_cycle;Signal;HPM_P1;HPM_P2
2022/04/14 00:01:02;;;;;;;3.95;1.02;;;22.30;99.90;;;;;;5047538;28;20490;-64
2022/04/14 00:03:29;;;;;;;4.47;1.10;;;22.40;99.90;;;;;;5046243;28;20032;-66
2022/04/14 00:05:56;;;;;;;2.75;0.82;;;22.30;99.90;;;;;;5048562;28;20040;-65
2022/04/14 00:08:22;;;;;;;3.20;1.30;;;22.10;99.90;;;;;;5047919;28;20037;-64
2022/04/14 00:10:49;;;;;;;3.17;1.20;;;21.80;99.90;;;;;;5047524;28;20036;-65
2022/04/14 00:13:17;;;;;;;3.15;1.50;;;21.60;99.90;;;;;;5047572;28;20155;-65
2022/04/14 00:15:44;;;;;;;1.73;0.90;;;21.60;99.90;;;;;;5041203;28;20487;-68
2022/04/14 00:18:10;;;;;;;2.83;0.80;;;21.80;99.90;;;;;;5042016;28;20029;-66
2022/04/14 00:20:37;;;;;;;1.98;0.90;;;22.20;99.90;;;;;;5044178;28;20032;-67
2022/04/14 00:23:04;;;;;;;2.72;0.80;;;22.50;99.90;;;;;;5045972;28;20032;-72
2022/04/14 00:25:31;;;;;;;2.35;0.70;;;22.70;99.90;;;;;;5047802;28;20036;-67
2022/04/14 00:27:58;;;;;;;3.17;1.30;;;22.70;99.90;;;;;;5047624;28;21013;-66
2022/04/14 00:30:26;;;;;;;3.08;1.00;;;22.70;99.90;;;;;;5047114;28;20028;-64
2022/04/14 00:32:53;;;;;;;3.00;2.03;;;22.60;99.90;;;;;;5046855;28;20297;-68
2022/04/14 00:35:20;;;;;;;2.10;0.77;;;22.40;99.90;;;;;;5046645;28;20103;-67
2022/04/14 00:37:47;;;;;;;3.53;1.33;;;22.50;99.90;;;;;;5046445;28;20045;-72
2022/04/14 00:40:14;;;;;;;3.03;1.02;;;22.50;99.90;;;;;;5046736;28;20423;-70
2022/04/14 00:42:41;;;;;;;2.17;0.93;;;22.60;99.90;;;;;;5047243;28;20082;-66
2022/04/14 00:45:09;;;;;;;2.28;0.88;;;22.70;99.90;;;;;;5044539;28;20028;-73
2022/04/14 00:47:36;;;;;;;7.88;5.70;;;23.00;99.90;;;;;;5046232;28;20107;-66
2022/04/14 00:50:04;;;;;;;1.98;1.15;;;23.30;99.90;;;;;;5046566;28;20032;-65
2022/04/14 00:52:31;;;;;;;3.25;1.20;;;23.30;99.90;;;;;;5045840;28;20376;-65
2022/04/14 00:54:58;;;;;;;2.42;0.68;;;23.40;99.90;;;;;;5044660;28;20419;-67
2022/04/14 00:57:25;;;;;;;3.05;0.80;;;23.70;99.90;;;;;;5045575;28;20096;-64
2022/04/14 00:59:52;;;;;;;1.35;0.38;;;23.90;99.90;;;;;;5045748;28;20032;-64
2022/04/14 01:02:20;;;;;;;4.95;1.20;;;24.00;99.90;;;;;;5046778;28;20028;-64
2022/04/14 01:04:47;;;;;;;2.30;0.95;;;24.30;99.90;;;;;;5045704;28;20058;-63
2022/04/14 01:07:14;;;;;;;1.85;0.80;;;24.30;99.90;;;;;;5044790;28;20120;-65
2022/04/14 01:09:41;;;;;;;4.47;2.22;;;24.30;99.90;;;;;;5045570;28;20029;-72
2022/04/14 01:12:10;;;;;;;3.47;2.03;;;24.40;99.90;;;;;;5043545;28;20100;-64
2022/04/14 01:14:39;;;;;;;2.92;2.47;;;24.50;99.90;;;;;;5044610;28;20056;-68
2022/04/14 01:17:08;;;;;;;2.92;1.25;;;24.70;99.90;;;;;;5045051;28;20028;-63
2022/04/14 01:19:36;;;;;;;3.35;0.95;;;24.60;99.90;;;;;;5044657;28;20060;-66
2022/04/14 01:22:19;;;;;;;2.35;0.75;;;24.40;99.90;;;;;;5044867;28;20464;-71
2022/04/14 01:24:47;;;;;;;1.92;0.80;;;24.00;99.90;;;;;;5044133;28;20033;-64
2022/04/14 01:27:14;;;;;;;4.50;1.30;;;23.70;99.90;;;;;;5045315;28;20029;-65
2022/04/14 01:29:41;;;;;;;3.88;1.17;;;23.40;99.90;;;;;;5044470;28;20028;-64
2022/04/14 01:32:09;;;;;;;3.30;1.40;;;23.30;99.90;;;;;;5042737;28;20111;-66
2022/04/14 01:34:36;;;;;;;1.83;0.85;;;23.30;99.90;;;;;;5044101;28;20048;-68
2022/04/14 01:37:03;;;;;;;1.65;0.80;;;23.40;99.90;;;;;;5044701;28;20133;-67
2022/04/14 01:39:30;;;;;;;4.82;0.90;;;23.50;99.90;;;;;;5044183;28;20052;-68
2022/04/14 01:41:57;;;;;;;2.70;1.52;;;23.60;99.90;;;;;;5043861;28;20654;-66
2022/04/14 01:44:25;;;;;;;2.25;0.88;;;23.70;99.90;;;;;;5041362;28;20025;-69
2022/04/14 01:46:52;;;;;;;5.05;1.50;;;23.70;99.90;;;;;;5043410;28;20039;-68
2022/04/14 01:49:19;;;;;;;2.90;1.38;;;23.70;99.90;;;;;;5043006;28;20036;-68
2022/04/14 01:51:48;;;;;;;2.17;1.10;;;23.90;99.90;;;;;;5046236;28;20568;-68
2022/04/14 01:54:15;;;;;;;2.88;1.10;;;23.90;99.90;;;;;;5045311;28;20017;-67
2022/04/14 01:56:42;;;;;;;4.22;1.20;;;23.80;99.90;;;;;;5043682;28;20024;-68
2022/04/14 01:59:13;;;;;;;4.07;0.80;;;23.70;99.90;;;;;;5043842;28;20136;-67
2022/04/14 02:01:40;;;;;;;4.50;1.23;;;23.60;99.90;;;;;;5044074;28;20051;-68
2022/04/14 02:04:07;;;;;;;2.30;0.93;;;23.50;99.90;;;;;;5043800;28;20063;-74
2022/04/14 02:06:34;;;;;;;3.33;2.10;;;23.30;99.90;;;;;;5043911;28;20055;-74
2022/04/14 02:09:01;;;;;;;3.67;1.83;;;23.00;99.90;;;;;;5044936;28;20025;-74
2022/04/14 02:11:28;;;;;;;2.78;1.17;;;22.90;99.90;;;;;;5043718;28;20422;-66
2022/04/14 02:13:55;;;;;;;6.70;1.00;;;22.80;99.90;;;;;;5041969;28;20415;-67
2022/04/14 02:16:22;;;;;;;2.75;1.58;;;22.70;99.90;;;;;;5043747;28;20375;-67
2022/04/14 02:18:49;;;;;;;2.20;0.80;;;22.60;99.90;;;;;;5044041;28;20532;-67
2022/04/14 02:21:16;;;;;;;3.55;1.13;;;22.60;99.90;;;;;;5043476;28;20025;-68
2022/04/14 02:23:43;;;;;;;3.97;0.98;;;22.60;99.90;;;;;;5044537;28;20131;-68
2022/04/14 02:26:10;;;;;;;2.53;0.70;;;22.60;99.90;;;;;;5043698;28;20802;-67
2022/04/14 02:28:37;;;;;;;2.40;1.20;;;22.60;99.90;;;;;;5043497;28;20025;-66
2022/04/14 02:31:04;;;;;;;3.72;0.95;;;22.60;99.90;;;;;;5041270;28;20028;-74
2022/04/14 02:33:31;;;;;;;4.18;1.73;;;22.60;99.90;;;;;;5043427;28;20489;-67
2022/04/14 02:35:57;;;;;;;2.58;0.90;;;22.80;99.90;;;;;;5044301;28;20498;-68
2022/04/14 02:38:25;;;;;;;2.97;0.95;;;22.90;99.90;;;;;;5043854;28;20049;-67
2022/04/14 02:40:52;;;;;;;1.67;0.95;;;22.90;99.90;;;;;;5044233;28;20035;-74
2022/04/14 02:43:19;;;;;;;3.45;2.22;;;23.00;99.90;;;;;;5042941;28;20341;-68
2022/04/14 02:45:45;;;;;;;5.72;4.95;;;23.00;99.90;;;;;;5043519;28;20029;-73
2022/04/14 02:48:12;;;;;;;4.72;1.20;;;23.00;99.90;;;;;;5044018;28;20059;-67
2022/04/14 02:50:43;;;;;;;1.52;0.80;;;23.20;99.90;;;;;;5044127;28;20375;-67
2022/04/14 02:53:11;;;;;;;1.35;0.93;;;23.30;99.90;;;;;;5044389;28;20036;-67
2022/04/14 02:55:38;;;;;;;6.70;1.00;;;23.30;99.90;;;;;;5044001;28;20566;-69
2022/04/14 02:58:05;;;;;;;1.48;0.85;;;23.30;99.90;;;;;;5045457;28;20052;-72
2022/04/14 03:00:32;;;;;;;3.83;0.75;;;23.40;99.90;;;;;;5044441;28;20021;-67
2022/04/14 03:03:00;;;;;;;2.28;0.82;;;23.50;99.90;;;;;;5044992;28;20522;-73
2022/04/14 03:05:27;;;;;;;2.85;0.70;;;24.00;99.90;;;;;;5045755;28;20055;-72
2022/04/14 03:07:54;;;;;;;6.07;1.70;;;24.70;99.90;;;;;;5037252;28;20166;-67
2022/04/14 03:10:21;;;;;;;2.17;0.63;;;25.30;99.90;;;;;;5039026;28;20136;-73
2022/04/14 03:12:49;;;;;;;6.82;3.70;;;25.50;99.90;;;;;;5041591;28;20032;-67
2022/04/14 03:15:17;;;;;;;3.92;1.55;;;25.50;99.90;;;;;;5042292;28;20029;-68
2022/04/14 03:17:44;;;;;;;6.57;4.50;;;25.80;99.90;;;;;;5042468;28;20064;-69
2022/04/14 03:20:12;;;;;;;2.15;0.77;;;26.10;99.90;;;;;;5042192;28;20940;-66
2022/04/14 03:22:39;;;;;;;2.28;0.60;;;26.20;99.90;;;;;;5042761;28;20413;-65
2022/04/14 03:25:08;;;;;;;2.33;0.90;;;26.50;99.20;;;;;;5043190;28;20466;-65
2022/04/14 03:27:37;;;;;;;1.55;0.77;;;26.50;98.30;;;;;;5041572;28;20484;-67
2022/04/14 03:30:11;;;;;;;2.47;1.02;;;26.60;98.50;;;;;;5043763;28;20491;-66
2022/04/14 03:32:45;;;;;;;2.50;0.63;;;26.60;99.50;;;;;;5042046;28;20056;-73
2022/04/14 03:35:14;;;;;;;2.95;0.60;;;26.80;99.40;;;;;;5043100;28;20017;-65
2022/04/14 03:37:42;;;;;;;1.42;0.50;;;26.40;98.60;;;;;;5041462;28;20108;-70
2022/04/14 03:40:10;;;;;;;3.15;1.00;;;26.00;99.90;;;;;;5043451;28;20035;-74
2022/04/14 03:42:37;;;;;;;1.80;0.90;;;25.60;99.90;;;;;;5043637;28;20025;-67
2022/04/14 03:45:06;;;;;;;3.03;0.75;;;25.40;99.90;;;;;;5040752;28;20511;-67
2022/04/14 03:47:33;;;;;;;1.92;0.60;;;25.30;99.90;;;;;;5040309;28;20044;-73
2022/04/14 03:50:00;;;;;;;0.60;0.40;;;25.30;99.90;;;;;;5042851;28;20071;-66
2022/04/14 03:52:27;;;;;;;2.38;0.60;;;25.90;99.90;;;;;;5042915;28;20033;-70
2022/04/14 03:54:54;;;;;;;1.35;0.40;;;26.50;99.30;;;;;;5043098;28;20025;-68
2022/04/14 03:57:21;;;;;;;1.17;0.50;;;26.60;99.50;;;;;;5045397;28;20021;-66
2022/04/14 03:59:48;;;;;;;2.00;0.52;;;26.80;98.40;;;;;;5043572;28;20051;-73
2022/04/14 04:02:15;;;;;;;1.92;0.75;;;26.50;98.00;;;;;;5046699;28;20036;-69
2022/04/14 04:04:43;;;;;;;10.23;4.60;;;25.90;99.00;;;;;;5046335;28;20024;-65
2022/04/14 04:07:10;;;;;;;3.60;1.27;;;25.40;99.90;;;;;;5046802;28;20025;-70
2022/04/14 04:09:38;;;;;;;5.38;1.33;;;25.10;99.90;;;;;;5045659;28;20105;-67
2022/04/14 04:12:06;;;;;;;2.58;1.02;;;24.70;99.90;;;;;;5045141;28;20074;-66
2022/04/14 04:14:33;;;;;;;3.17;1.13;;;24.30;99.90;;;;;;5046712;28;20021;-65
2022/04/14 04:17:01;;;;;;;3.05;1.02;;;24.00;99.90;;;;;;5047932;28;20028;-65
2022/04/14 04:19:28;;;;;;;3.47;1.48;;;23.80;99.90;;;;;;5047361;28;20028;-71
2022/04/14 04:21:55;;;;;;;4.78;1.10;;;23.60;99.90;;;;;;5047742;28;20087;-72
2022/04/14 04:24:22;;;;;;;2.45;1.17;;;23.30;99.90;;;;;;5047613;28;20044;-65
2022/04/14 04:26:49;;;;;;;4.35;1.20;;;23.20;99.90;;;;;;5047101;28;20101;-73
2022/04/14 04:29:15;;;;;;;4.45;1.23;;;23.20;99.90;;;;;;5047022;28;20060;-73
2022/04/14 04:31:42;;;;;;;1.70;0.85;;;23.20;99.90;;;;;;5047615;28;20056;-73
2022/04/14 04:34:09;;;;;;;2.00;0.93;;;23.20;99.90;;;;;;5046760;28;20025;-67
2022/04/14 04:36:36;;;;;;;3.20;1.13;;;23.30;99.90;;;;;;5045497;28;20144;-69
2022/04/14 04:39:04;;;;;;;3.22;1.08;;;23.40;99.90;;;;;;5044301;28;20027;-65
2022/04/14 04:41:31;;;;;;;4.35;0.93;;;23.40;99.90;;;;;;5044552;28;20384;-69
2022/04/14 04:43:58;;;;;;;3.53;1.00;;;23.60;99.90;;;;;;4691292;28;10000068;-72
2022/04/14 04:46:25;;;;;;;2.13;0.77;;;23.70;99.90;;;;;;5040625;28;20510;-66
2022/04/14 04:48:52;;;;;;;2.42;1.25;;;23.80;99.90;;;;;;5039894;28;20479;-66
2022/04/14 04:51:19;;;;;;;2.17;0.80;;;24.10;99.90;;;;;;5039742;28;20025;-72
2022/04/14 04:53:46;;;;;;;1.98;0.80;;;24.80;99.90;;;;;;5040447;28;20510;-67
2022/04/14 04:56:13;;;;;;;3.25;1.00;;;25.60;99.90;;;;;;5038173;28;20035;-70
2022/04/14 04:58:40;;;;;;;2.72;0.70;;;26.00;99.90;;;;;;5038636;28;20020;-67
2022/04/14 05:01:07;;;;;;;2.22;0.75;;;26.50;99.90;;;;;;5041635;28;20440;-68
2022/04/14 05:03:34;;;;;;;3.72;0.73;;;26.50;99.90;;;;;;5039825;28;20029;-71
2022/04/14 05:06:01;;;;;;;0.98;0.80;;;26.30;99.90;;;;;;5041124;28;20037;-66
2022/04/14 05:08:28;;;;;;;1.05;0.50;;;25.80;99.80;;;;;;5041878;28;20025;-66
2022/04/14 05:10:55;;;;;;;2.00;0.68;;;25.10;99.90;;;;;;5041953;28;20031;-66
2022/04/14 05:13:22;;;;;;;1.52;0.50;;;24.60;99.90;;;;;;5040772;28;20024;-72
2022/04/14 05:15:49;;;;;;;4.30;0.63;;;24.00;99.90;;;;;;5041094;28;20021;-66
2022/04/14 05:18:16;;;;;;;2.65;0.70;;;23.60;99.90;;;;;;5040297;28;20590;-66
2022/04/14 05:20:43;;;;;;;3.25;0.60;;;23.50;99.90;;;;;;5039106;28;20021;-67
2022/04/14 05:23:10;;;;;;;1.48;0.43;;;23.40;99.90;;;;;;5042447;28;20181;-72
2022/04/14 05:25:40;;;;;;;2.10;0.60;;;23.40;99.90;;;;;;5039164;28;20413;-70
2022/04/14 05:28:07;;;;;;;5.97;3.38;;;23.40;99.90;;;;;;5038982;28;20037;-70
2022/04/14 05:30:34;;;;;;;6.32;0.85;;;23.30;99.90;;;;;;5038123;28;20110;-71
2022/04/14 05:33:01;;;;;;;2.28;0.73;;;23.60;99.90;;;;;;5039011;28;20079;-67
2022/04/14 05:35:28;;;;;;;1.70;0.50;;;24.10;99.90;;;;;;5039242;28;20021;-71
2022/04/14 05:37:55;;;;;;;1.77;0.77;;;24.60;99.90;;;;;;5039380;28;20471;-73
2022/04/14 05:40:22;;;;;;;2.55;1.77;;;25.00;99.90;;;;;;5038497;28;20616;-71
2022/04/14 05:42:52;;;;;;;6.68;3.70;;;25.30;99.90;;;;;;5040736;28;20288;-67
2022/04/14 05:45:21;;;;;;;12.63;10.10;;;25.60;99.90;;;;;;5040638;28;20017;-67
2022/04/14 05:47:48;;;;;;;1.77;1.13;;;26.00;99.90;;;;;;5042714;28;20040;-71
2022/04/14 05:50:15;;;;;;;2.70;1.00;;;26.30;99.70;;;;;;5040773;28;20024;-68
2022/04/14 05:52:42;;;;;;;2.58;0.40;;;26.50;99.70;;;;;;5039888;28;20039;-68
2022/04/14 05:55:10;;;;;;;3.80;0.57;;;26.80;98.60;;;;;;5037762;28;20024;-70
2022/04/14 05:57:37;;;;;;;1.83;0.50;;;27.00;98.30;;;;;;5040305;28;20075;-67
2022/04/14 06:00:05;;;;;;;1.20;0.60;;;27.10;98.30;;;;;;5039814;28;20025;-72
2022/04/14 06:02:32;;;;;;;2.35;0.82;;;27.30;98.10;;;;;;5040696;28;20399;-69
2022/04/14 06:04:59;;;;;;;3.40;0.60;;;27.40;96.80;;;;;;5040125;28;20032;-67
2022/04/14 06:07:26;;;;;;;1.90;0.70;;;27.40;97.20;;;;;;5037915;28;20198;-66
2022/04/14 06:09:53;;;;;;;1.40;0.38;;;27.50;96.80;;;;;;5038872;28;20028;-68
2022/04/14 06:12:20;;;;;;;0.68;0.30;;;27.80;96.40;;;;;;5037937;28;20025;-66
2022/04/14 06:14:47;;;;;;;1.75;0.63;;;28.00;95.50;;;;;;5039930;28;20017;-69
2022/04/14 06:17:14;;;;;;;3.55;1.00;;;27.80;95.60;;;;;;5039366;28;20028;-68
2022/04/14 06:19:41;;;;;;;1.33;0.40;;;27.30;95.80;;;;;;5036723;28;20448;-66
2022/04/14 06:22:08;;;;;;;1.02;0.50;;;26.90;96.60;;;;;;5039246;28;20056;-66
2022/04/14 06:24:35;;;;;;;6.13;1.48;;;26.90;96.60;;;;;;5038395;28;20025;-65
2022/04/14 06:27:02;;;;;;;1.48;0.52;;;26.80;97.20;;;;;;5038021;28;20066;-68
2022/04/14 06:29:29;;;;;;;2.65;0.50;;;27.00;96.70;;;;;;5038424;28;20100;-69
2022/04/14 06:31:56;;;;;;;2.08;0.65;;;26.70;96.70;;;;;;5037548;28;20655;-66
2022/04/14 06:34:24;;;;;;;1.38;0.60;;;26.50;97.60;;;;;;5038436;28;20029;-70
2022/04/14 06:36:51;;;;;;;2.58;0.93;;;26.50;97.50;;;;;;5038038;28;20041;-69
2022/04/14 06:39:18;;;;;;;1.63;0.82;;;26.90;98.20;;;;;;5036923;28;20574;-71
2022/04/14 06:41:45;;;;;;;2.92;0.75;;;27.30;96.90;;;;;;5037244;28;20024;-70
2022/04/14 06:44:12;;;;;;;2.35;1.15;;;27.40;96.40;;;;;;5035849;28;20040;-70
2022/04/14 06:46:39;;;;;;;2.97;1.40;;;27.60;96.20;;;;;;5038930;28;20099;-68
2022/04/14 06:49:06;;;;;;;2.42;0.82;;;27.60;95.40;;;;;;5038398;28;20024;-68
2022/04/14 06:51:34;;;;;;;2.33;0.70;;;27.40;95.70;;;;;;5037846;28;20068;-67
2022/04/14 06:54:01;;;;;;;1.83;1.02;;;27.10;95.80;;;;;;5038160;28;20036;-67
2022/04/14 06:56:27;;;;;;;3.58;1.15;;;26.80;96.40;;;;;;5039999;28;20029;-67
2022/04/14 06:58:54;;;;;;;1.73;0.88;;;26.00;97.70;;;;;;5042028;28;20029;-69
2022/04/14 07:01:23;;;;;;;2.03;0.68;;;25.20;99.40;;;;;;5040487;28;20057;-66
2022/04/14 07:03:50;;;;;;;4.30;0.88;;;24.70;99.70;;;;;;5040284;28;20123;-67
2022/04/14 07:06:17;;;;;;;8.35;3.55;;;24.20;99.90;;;;;;5039748;28;20036;-66
2022/04/14 07:08:44;;;;;;;4.85;2.80;;;23.90;99.90;;;;;;5041575;28;20049;-69
2022/04/14 07:11:11;;;;;;;1.70;0.50;;;23.50;99.90;;;;;;5040183;28;20406;-66
2022/04/14 07:13:38;;;;;;;3.63;1.42;;;23.30;99.90;;;;;;5042275;28;20360;-67
2022/04/14 07:16:05;;;;;;;3.47;0.98;;;23.00;99.90;;;;;;5041984;28;20385;-66
2022/04/14 07:18:32;;;;;;;2.97;0.75;;;22.70;99.90;;;;;;5041789;28;20025;-70
2022/04/14 07:20:59;;;;;;;3.38;1.33;;;22.50;99.90;;;;;;5041793;28;20083;-66
2022/04/14 07:23:27;;;;;;;3.55;1.90;;;22.00;99.90;;;;;;5040994;28;20029;-69
2022/04/14 07:25:54;;;;;;;5.95;3.40;;;21.80;99.90;;;;;;5041290;28;20032;-68
2022/04/14 07:28:21;;;;;;;4.43;2.28;;;21.60;99.90;;;;;;5040660;28;20150;-65
2022/04/14 07:30:48;;;;;;;3.33;1.02;;;21.50;99.90;;;;;;5043143;28;20056;-67
2022/04/14 07:33:15;;;;;;;2.53;1.35;;;21.60;99.90;;;;;;5044717;28;20108;-67
2022/04/14 07:35:42;;;;;;;2.20;0.52;;;21.50;99.90;;;;;;5044550;28;20442;-70
2022/04/14 07:38:09;;;;;;;3.17;0.95;;;21.30;99.90;;;;;;5043084;28;20496;-69
2022/04/14 07:40:36;;;;;;;3.50;1.02;;;21.20;99.90;;;;;;5044015;28;20021;-66
2022/04/14 07:43:03;;;;;;;2.53;0.90;;;21.10;99.90;;;;;;5043855;28;20114;-66
2022/04/14 07:45:30;;;;;;;8.65;0.90;;;20.80;99.90;;;;;;5045744;28;20090;-71
2022/04/14 07:47:57;;;;;;;2.63;0.82;;;20.80;99.90;;;;;;5043905;28;20029;-68
2022/04/14 07:50:24;;;;;;;2.58;1.05;;;20.60;99.90;;;;;;5046541;28;20029;-70
2022/04/14 07:52:56;;;;;;;2.70;0.68;;;20.40;99.90;;;;;;5044404;28;20127;-70
2022/04/14 07:55:34;;;;;;;3.88;0.70;;;20.20;99.90;;;;;;5045415;28;20484;-67
2022/04/14 07:58:05;;;;;;;3.15;1.00;;;20.20;99.90;;;;;;5044367;28;20580;-65
2022/04/14 08:00:32;;;;;;;5.82;0.85;;;20.00;99.90;;;;;;5043915;28;20021;-65
2022/04/14 08:03:01;;;;;;;2.92;1.23;;;19.90;99.90;;;;;;5044039;28;20036;-66
2022/04/14 08:05:34;;;;;;;4.60;1.05;;;19.80;99.90;;;;;;5045777;28;20483;-68
2022/04/14 08:08:10;;;;;;;3.85;1.00;;;19.70;99.90;;;;;;5042143;28;20035;-66
2022/04/14 08:10:37;;;;;;;3.38;0.77;;;19.70;99.90;;;;;;5046173;28;20056;-67
2022/04/14 08:13:04;;;;;;;2.08;0.80;;;19.50;99.90;;;;;;5044519;28;20032;-65
2022/04/14 08:15:33;;;;;;;4.45;1.35;;;19.30;99.90;;;;;;5043788;28;20110;-69
2022/04/14 08:18:00;;;;;;;1.27;0.68;;;19.20;99.90;;;;;;5043195;28;20480;-68
2022/04/14 08:20:29;;;;;;;3.17;1.10;;;19.10;99.90;;;;;;5045396;28;20297;-69
2022/04/14 08:22:58;;;;;;;3.10;1.25;;;19.10;99.90;;;;;;5039843;28;20060;-69
2022/04/14 08:25:31;;;;;;;2.90;0.98;;;19.00;99.90;;;;;;5038637;28;20039;-68
2022/04/14 08:28:00;;;;;;;4.32;1.55;;;18.90;99.90;;;;;;5037272;28;20040;-68
2022/04/14 08:30:29;;;;;;;5.10;1.17;;;18.90;99.90;;;;;;5037790;28;20021;-68
2022/04/14 08:32:58;;;;;;;5.55;1.63;;;18.90;99.90;;;;;;5038135;28;20363;-68
2022/04/14 08:35:28;;;;;;;2.72;1.15;;;18.80;99.90;;;;;;5039933;28;20105;-66
2022/04/14 08:37:55;;;;;;;3.42;1.25;;;18.80;99.90;;;;;;5038289;28;20551;-68
2022/04/14 08:40:22;;;;;;;3.20;0.80;;;18.70;99.90;;;;;;5039737;28;20025;-69
2022/04/14 08:42:57;;;;;;;3.35;0.93;;;18.70;99.90;;;;;;5037334;28;20025;-66
2022/04/14 08:45:26;;;;;;;4.68;1.50;;;18.70;99.90;;;;;;5036511;28;20117;-67
2022/04/14 08:47:53;;;;;;;3.20;1.40;;;18.70;99.90;;;;;;5051496;28;20032;-71
2022/04/14 08:50:20;;;;;;;2.60;1.30;;;18.60;99.90;;;;;;5037747;28;20245;-70
2022/04/14 08:52:48;;;;;;;3.20;1.55;;;18.60;99.90;;;;;;5035365;28;20028;-73
2022/04/14 08:55:15;;;;;;;2.80;1.52;;;18.50;99.90;;;;;;5035933;28;20045;-68
2022/04/14 08:57:43;;;;;;;3.90;1.10;;;18.50;99.90;;;;;;5036674;28;20255;-70
2022/04/14 09:00:18;;;;;;;3.50;1.85;;;18.60;99.90;;;;;;5035936;28;20059;-71
2022/04/14 09:02:46;;;;;;;2.78;1.42;;;18.60;99.90;;;;;;5037008;28;20473;-71
2022/04/14 09:05:17;;;;;;;6.82;3.70;;;18.60;99.90;;;;;;5037531;28;20056;-68
2022/04/14 09:07:53;;;;;;;3.35;2.03;;;18.40;99.90;;;;;;5036215;28;20040;-69
2022/04/14 09:10:21;;;;;;;3.97;1.45;;;18.30;99.90;;;;;;5036916;28;20051;-67
2022/04/14 09:12:49;;;;;;;6.15;1.95;;;18.40;99.90;;;;;;5037093;28;20021;-70
2022/04/14 09:15:17;;;;;;;2.90;1.30;;;18.40;99.90;;;;;;5036354;28;20029;-71
2022/04/14 09:17:44;;;;;;;4.38;1.80;;;18.50;99.90;;;;;;5035174;28;20699;-68
2022/04/14 09:20:37;;;;;;;2.55;1.35;;;18.60;99.90;;;;;;5034312;28;20021;-71
2022/04/14 09:23:26;;;;;;;2.17;1.63;;;18.60;99.90;;;;;;5035207;28;20025;-65
2022/04/14 09:26:14;;;;;;;3.80;1.80;;;18.50;99.90;;;;;;5035779;28;20033;-69
2022/04/14 09:29:07;;;;;;;3.63;1.60;;;18.30;99.90;;;;;;5036420;28;20405;-68
2022/04/14 09:31:51;;;;;;;5.28;1.60;;;18.10;99.90;;;;;;5033175;28;20029;-65
2022/04/14 09:34:38;;;;;;;4.30;1.30;;;18.00;99.90;;;;;;5036226;28;20364;-66
2022/04/14 09:37:09;;;;;;;2.22;1.67;;;17.80;99.90;;;;;;5035831;28;20577;-66
2022/04/14 09:40:08;;;;;;;6.53;1.75;;;17.70;99.90;;;;;;5036384;28;20376;-65
2022/04/14 09:42:50;;;;;;;5.63;2.17;;;17.70;99.90;;;;;;4972134;28;20045;-67
2022/04/14 09:45:22;;;;;;;3.50;1.40;;;17.70;99.90;;;;;;4967215;28;20039;-68
2022/04/14 09:47:51;;;;;;;5.40;1.45;;;17.60;99.90;;;;;;4971516;28;20451;-69
2022/04/14 09:50:35;;;;;;;3.60;1.67;;;17.50;99.90;;;;;;4972360;28;20146;-69
2022/04/14 09:53:11;;;;;;;5.20;1.77;;;17.40;99.90;;;;;;4970785;28;20156;-69
2022/04/14 09:56:01;;;;;;;6.35;4.07;;;17.40;99.90;;;;;;4971420;28;20279;-68
2022/04/14 09:58:28;;;;;;;3.60;2.40;;;17.30;99.90;;;;;;4973405;28;20040;-65
2022/04/14 10:00:56;;;;;;;5.70;3.10;;;17.40;99.90;;;;;;4973377;28;20042;-68
2022/04/14 10:03:26;;;;;;;4.60;3.40;;;17.40;99.90;;;;;;4969221;28;20400;-71
2022/04/14 10:05:58;;;;;;;2.20;1.30;;;17.30;99.90;;;;;;4973773;28;20058;-67
2022/04/14 10:08:27;;;;;;;2.65;1.45;;;17.40;99.90;;;;;;4973395;28;20520;-67
2022/04/14 10:11:08;;;;;;;3.42;1.25;;;17.40;99.90;;;;;;4974613;28;20052;-68
2022/04/14 10:13:37;;;;;;;3.80;1.30;;;17.50;99.90;;;;;;4973909;28;20154;-70
2022/04/14 10:16:04;;;;;;;2.80;1.30;;;17.60;99.90;;;;;;4974121;28;20034;-67
2022/04/14 10:18:32;;;;;;;6.57;2.42;;;17.70;99.90;;;;;;4981486;28;20030;-69
2022/04/14 10:20:59;;;;;;;3.10;1.48;;;18.00;99.90;;;;;;5038022;28;20041;-70
2022/04/14 10:23:30;;;;;;;5.15;1.98;;;18.10;99.90;;;;;;5040603;28;20028;-70
2022/04/14 10:25:57;;;;;;;2.65;2.10;;;18.20;99.90;;;;;;5038353;28;20131;-72
2022/04/14 10:28:25;;;;;;;4.50;1.85;;;18.30;99.90;;;;;;5038421;28;20029;-69
2022/04/14 10:30:56;;;;;;;3.55;2.22;;;18.30;99.90;;;;;;5036889;28;20044;-71
2022/04/14 10:33:24;;;;;;;3.00;1.73;;;18.30;99.90;;;;;;5037799;28;20021;-66
2022/04/14 10:35:53;;;;;;;3.95;2.17;;;18.10;99.90;;;;;;5037492;28;20070;-68
2022/04/14 10:38:28;;;;;;;2.85;1.70;;;18.10;99.90;;;;;;5026112;23;20063;-68
2022/04/14 10:41:15;;;;;;;5.22;2.83;;;18.00;99.90;;;;;;5014702;28;20052;-69
2022/04/14 10:43:46;;;;;;;6.18;3.85;;;17.90;99.90;;;;;;5011965;28;20404;-69
2022/04/14 10:46:17;;;;;;;2.53;1.75;;;17.80;99.90;;;;;;5011972;28;20083;-70
2022/04/14 10:48:45;;;;;;;3.55;2.53;;;17.80;99.90;;;;;;5013918;28;20022;-67
2022/04/14 10:51:23;;;;;;;4.25;2.50;;;17.80;99.90;;;;;;5014511;28;20060;-67
2022/04/14 10:53:55;;;;;;;5.13;2.70;;;17.80;99.90;;;;;;5015377;28;20033;-67
2022/04/14 10:56:40;;;;;;;6.30;3.95;;;17.90;99.90;;;;;;4992151;28;20021;-67
2022/04/14 10:59:12;;;;;;;8.95;5.28;;;17.90;99.90;;;;;;5015924;28;20040;-67
2022/04/14 11:01:48;;;;;;;4.72;2.95;;;17.90;99.90;;;;;;5017699;28;20480;-65
2022/04/14 11:04:26;;;;;;;4.05;2.60;;;17.90;99.90;;;;;;5016108;28;20500;-67
2022/04/14 11:07:16;;;;;;;5.93;2.67;;;17.90;99.90;;;;;;5014885;28;20197;-67
2022/04/14 11:09:44;;;;;;;3.88;2.20;;;18.10;99.90;;;;;;5013339;28;20118;-67
2022/04/14 11:12:33;;;;;;;6.38;2.22;;;18.10;99.90;;;;;;5014604;28;20566;-66
2022/04/14 11:15:03;;;;;;;3.22;2.08;;;18.00;99.90;;;;;;5016270;28;20029;-69
2022/04/14 11:20:22;;;;;;;5.68;2.30;;;17.90;99.90;;;;;;5015472;28;20144;-67
2022/04/14 11:23:08;;;;;;;4.97;2.25;;;17.80;99.90;;;;;;5018098;28;20050;-67
2022/04/14 11:26:04;;;;;;;3.55;1.75;;;17.80;99.90;;;;;;5015420;28;20033;-67
2022/04/14 11:28:33;;;;;;;4.88;2.45;;;17.80;99.90;;;;;;5009007;28;20443;-72
2022/04/14 11:31:01;;;;;;;7.15;2.75;;;17.90;99.90;;;;;;5015520;28;20486;-69
2022/04/14 11:33:28;;;;;;;6.05;3.80;;;17.80;99.90;;;;;;5017106;28;20447;-69
2022/04/14 11:36:20;;;;;;;7.30;2.90;;;17.80;99.90;;;;;;5018490;28;20064;-67
2022/04/14 11:38:53;;;;;;;5.93;3.15;;;17.80;99.90;;;;;;5018132;28;20122;-72
2022/04/14 11:41:31;;;;;;;5.35;2.10;;;17.90;99.90;;;;;;5019434;28;20103;-68
2022/04/14 11:43:58;;;;;;;5.43;2.38;;;18.00;99.90;;;;;;5019544;28;20040;-69
2022/04/14 11:46:26;;;;;;;4.45;2.40;;;18.00;99.90;;;;;;5020781;28;20037;-69
2022/04/14 11:48:53;;;;;;;6.10;2.70;;;18.00;99.90;;;;;;5018637;28;20144;-69
2022/04/14 11:51:21;;;;;;;7.38;2.60;;;18.00;99.90;;;;;;5017568;28;20064;-69
2022/04/14 11:53:50;;;;;;;4.68;2.50;;;17.90;99.90;;;;;;5019228;28;20128;-69
2022/04/14 11:56:18;;;;;;;5.95;2.28;;;17.80;99.90;;;;;;5017853;28;20167;-69
2022/04/14 11:58:46;;;;;;;3.58;2.00;;;17.80;99.90;;;;;;5000823;28;20153;-68
2022/04/14 12:01:14;;;;;;;2.80;1.90;;;17.80;99.90;;;;;;5017659;28;20026;-69
2022/04/14 12:03:42;;;;;;;3.97;2.13;;;17.80;99.90;;;;;;5018331;28;20087;-68
2022/04/14 12:06:14;;;;;;;3.50;2.00;;;17.70;99.90;;;;;;5017979;28;20518;-67
2022/04/14 12:08:41;;;;;;;6.30;2.88;;;17.70;99.90;;;;;;5017068;28;20029;-68
2022/04/14 12:11:13;;;;;;;6.60;2.70;;;17.60;99.90;;;;;;5018221;28;20432;-71
2022/04/14 12:13:42;;;;;;;6.35;5.60;;;17.70;99.90;;;;;;5018197;28;20044;-71
2022/04/14 12:16:11;;;;;;;5.65;3.22;;;17.70;99.90;;;;;;5018287;28;20941;-70
2022/04/14 12:18:40;;;;;;;6.88;3.28;;;17.60;99.90;;;;;;5022592;28;20044;-70
2022/04/14 12:21:18;;;;;;;11.02;4.43;;;17.40;99.90;;;;;;5021763;28;20026;-70
2022/04/14 12:23:53;;;;;;;7.03;3.03;;;17.30;99.90;;;;;;5022476;28;20480;-68
2022/04/14 12:26:22;;;;;;;12.13;5.47;;;17.20;99.90;;;;;;5017942;28;20038;-70
2022/04/14 12:28:49;;;;;;;15.13;7.00;;;17.10;99.90;;;;;;5020061;28;20111;-69
2022/04/14 12:31:17;;;;;;;17.55;10.98;;;16.90;99.90;;;;;;5021414;28;20087;-70
2022/04/14 12:33:58;;;;;;;12.10;5.50;;;16.80;99.90;;;;;;5022691;28;20034;-70
2022/04/14 12:36:37;;;;;;;7.70;2.95;;;16.70;99.90;;;;;;5020342;28;20902;-70
2022/04/14 12:39:17;;;;;;;6.10;3.00;;;16.60;99.90;;;;;;5022817;28;20060;-68
2022/04/14 12:41:44;;;;;;;9.82;2.63;;;16.50;99.90;;;;;;5020580;28;20030;-70
2022/04/14 12:44:18;;;;;;;11.32;3.00;;;16.50;99.90;;;;;;5018627;28;20070;-70
2022/04/14 12:46:49;;;;;;;6.30;2.88;;;16.70;99.90;;;;;;5019965;28;20026;-67
2022/04/14 12:49:20;;;;;;;14.77;2.70;;;16.70;99.90;;;;;;5018098;28;20056;-69
2022/04/14 12:51:55;;;;;;;7.05;2.58;;;16.70;99.90;;;;;;5022275;28;20030;-68
2022/04/14 12:54:25;;;;;;;8.20;2.60;;;16.70;99.90;;;;;;5019586;28;20021;-69
2022/04/14 12:57:19;;;;;;;8.30;3.08;;;16.60;99.90;;;;;;5022676;28;20029;-72
2022/04/14 13:00:11;;;;;;;16.08;3.53;;;16.60;99.90;;;;;;5013933;28;20141;-71